createdAt,value
2022-08-29T00:01:15.758Z,10.20
2022-08-29T00:04:08.446Z,11.07
2022-08-29T00:07:00.739Z,10.77
2022-08-29T00:09:53.106Z,10.37
2022-08-29T00:12:46.347Z,9.70
2022-08-29T00:15:44.608Z,9.63
2022-08-29T00:18:37.780Z,9.87
2022-08-29T00:21:30.608Z,8.47
2022-08-29T00:24:22.556Z,8.27
2022-08-29T00:27:14.586Z,8.63
2022-08-29T00:32:58.507Z,7.93
2022-08-29T00:35:50.562Z,8.95
2022-08-29T00:38:43.614Z,8.53
2022-08-29T00:41:35.836Z,8.77
2022-08-29T00:44:27.805Z,8.07
2022-08-29T00:53:13.907Z,8.60
2022-08-29T00:56:11.596Z,8.03
2022-08-29T00:59:08.446Z,8.00
2022-08-29T01:02:01.053Z,7.67
2022-08-29T01:04:54.397Z,7.80
2022-08-29T01:07:47.821Z,8.87
2022-08-29T01:10:59.102Z,7.90
2022-08-29T01:16:46.025Z,8.27
2022-08-29T01:19:47.686Z,8.13
2022-08-29T01:22:56.313Z,8.67
2022-08-29T01:25:52.192Z,8.10
2022-08-29T01:28:48.572Z,7.53
2022-08-29T01:31:56.350Z,7.70
2022-08-29T01:34:50.287Z,8.77
2022-08-29T01:37:47.176Z,8.97
2022-08-29T01:40:38.940Z,8.23
2022-08-29T01:43:32.989Z,8.90
2022-08-29T01:46:26.881Z,8.43
2022-08-29T01:49:21.317Z,8.93
2022-08-29T01:52:13.908Z,8.27
2022-08-29T01:55:05.959Z,8.90
2022-08-29T01:57:58.054Z,8.20
2022-08-29T02:00:50.384Z,9.10
2022-08-29T02:03:42.441Z,8.93
2022-08-29T02:06:36.482Z,8.90
2022-08-29T02:09:29.885Z,8.70
2022-08-29T02:12:23.146Z,8.60
2022-08-29T02:15:16.790Z,9.60
2022-08-29T02:18:09.298Z,9.60
2022-08-29T02:21:02.217Z,9.63
2022-08-29T02:23:55.582Z,14.17
2022-08-29T02:26:48.425Z,12.53
2022-08-29T02:29:41.300Z,14.23
2022-08-29T02:32:33.054Z,15.07
2022-08-29T02:35:27.507Z,13.20
2022-08-29T02:38:22.367Z,10.90
2022-08-29T02:41:15.283Z,11.17
2022-08-29T02:44:08.555Z,10.87
2022-08-29T02:47:01.023Z,11.20
2022-08-29T02:49:53.592Z,10.27
2022-08-29T02:52:47.213Z,10.20
2022-08-29T02:55:40.311Z,9.57
2022-08-29T02:58:32.492Z,9.43
2022-08-29T03:01:26.266Z,8.27
2022-08-29T03:04:18.053Z,9.40
2022-08-29T03:07:12.851Z,9.50
2022-08-29T03:10:07.113Z,9.53
2022-08-29T03:13:00.324Z,8.80
2022-08-29T03:15:52.587Z,10.80
2022-08-29T03:18:45.183Z,9.70
2022-08-29T03:21:38.028Z,10.33
2022-08-29T03:24:30.263Z,8.83
2022-08-29T03:27:23.507Z,8.77
2022-08-29T03:30:19.211Z,7.83
2022-08-29T03:33:12.135Z,7.60
2022-08-29T03:36:07.026Z,7.63
2022-08-29T03:39:07.090Z,7.25
2022-08-29T03:41:59.968Z,6.90
2022-08-29T03:44:51.901Z,6.50
2022-08-29T03:47:43.954Z,6.75
2022-08-29T03:50:36.369Z,6.73
2022-08-29T03:56:20.838Z,6.60
2022-08-29T03:59:12.741Z,6.47
2022-08-29T04:02:06.155Z,5.63
2022-08-29T04:05:10.868Z,7.33
2022-08-29T04:08:03.842Z,6.37
2022-08-29T04:10:55.777Z,5.73
2022-08-29T04:13:49.268Z,6.20
2022-08-29T04:16:41.043Z,6.23
2022-08-29T04:19:35.405Z,6.03
2022-08-29T04:22:27.457Z,6.67
2022-08-29T04:25:20.148Z,6.27
2022-08-29T04:28:15.197Z,6.33
2022-08-29T04:31:13.326Z,6.47
2022-08-29T04:34:06.388Z,6.37
2022-08-29T04:37:00.282Z,6.10
2022-08-29T04:39:52.657Z,6.20
2022-08-29T04:42:47.331Z,5.93
2022-08-29T04:45:40.917Z,7.47
2022-08-29T04:48:33.619Z,6.17
2022-08-29T04:51:26.291Z,5.97
2022-08-29T04:54:18.855Z,5.77
2022-08-29T05:00:05.106Z,5.93
2022-08-29T05:02:57.401Z,6.43
2022-08-29T05:05:59.112Z,6.00
2022-08-29T05:08:59.337Z,5.90
2022-08-29T05:11:52.589Z,6.07
2022-08-29T05:17:36.609Z,6.27
2022-08-29T05:20:28.259Z,5.37
2022-08-29T05:23:20.716Z,6.10
2022-08-29T05:26:12.931Z,5.70
2022-08-29T05:29:05.837Z,5.17
2022-08-29T05:32:00.410Z,5.77
2022-08-29T05:37:43.203Z,5.13
2022-08-29T05:40:35.834Z,5.13
2022-08-29T05:46:20.147Z,5.00
2022-08-29T05:49:12.968Z,5.40
2022-08-29T05:52:07.173Z,5.83
2022-08-29T05:55:02.539Z,5.13
2022-08-29T05:57:54.872Z,6.10
2022-08-29T06:00:48.227Z,4.77
2022-08-29T06:03:45.450Z,5.57
2022-08-29T06:06:38.881Z,4.70
2022-08-29T06:09:30.613Z,4.90
2022-08-29T06:12:24.415Z,5.33
2022-08-29T06:15:16.654Z,4.53
2022-08-29T06:18:10.385Z,4.47
2022-08-29T06:21:04.764Z,4.50
2022-08-29T06:23:57.143Z,4.47
2022-08-29T06:26:50.167Z,4.77
2022-08-29T06:29:43.731Z,5.10
2022-08-29T06:32:36.590Z,4.53
2022-08-29T06:35:28.829Z,4.60
2022-08-29T06:38:21.315Z,4.50
2022-08-29T06:41:15.046Z,5.00
2022-08-29T06:44:08.019Z,5.07
2022-08-29T06:47:00.120Z,4.97
2022-08-29T06:49:52.008Z,4.63
2022-08-29T06:52:44.094Z,5.30
2022-08-29T06:55:42.044Z,4.50
2022-08-29T06:58:34.859Z,5.27
2022-08-29T07:01:27.684Z,5.00
2022-08-29T07:04:20.682Z,4.83
2022-08-29T07:10:32.353Z,4.70
2022-08-29T07:13:25.257Z,5.63
2022-08-29T07:16:19.298Z,5.10
2022-08-29T07:19:12.227Z,6.07
2022-08-29T07:22:05.406Z,4.80
2022-08-29T07:24:58.482Z,4.57
2022-08-29T07:27:52.043Z,5.40
2022-08-29T07:30:45.810Z,4.10
2022-08-29T07:33:39.585Z,4.27
2022-08-29T07:36:34.346Z,4.50
2022-08-29T07:39:26.482Z,4.50
2022-08-29T07:42:18.927Z,4.80
2022-08-29T07:45:14.999Z,4.63
2022-08-29T07:48:07.917Z,4.87
2022-08-29T07:51:05.141Z,4.93
2022-08-29T07:54:00.429Z,4.87
2022-08-29T07:56:55.444Z,4.97
2022-08-29T07:59:48.078Z,4.65
2022-08-29T08:02:40.628Z,4.57
2022-08-29T08:05:32.749Z,5.43
2022-08-29T08:08:25.132Z,4.77
2022-08-29T08:11:18.424Z,5.20
2022-08-29T08:14:12.930Z,4.50
2022-08-29T08:17:04.943Z,5.27
2022-08-29T08:19:57.879Z,4.80
2022-08-29T08:22:49.924Z,4.80
2022-08-29T08:25:43.178Z,6.43
2022-08-29T08:28:35.816Z,4.80
2022-08-29T08:31:29.638Z,4.63
2022-08-29T08:34:23.292Z,4.50
2022-08-29T08:37:19.419Z,4.30
2022-08-29T08:40:23.641Z,4.60
2022-08-29T08:43:26.616Z,4.33
2022-08-29T08:46:30.167Z,4.60
2022-08-29T08:49:40.963Z,4.60
2022-08-29T08:52:42.829Z,4.07
2022-08-29T08:55:43.147Z,4.20
2022-08-29T08:58:42.458Z,4.80
2022-08-29T09:01:39.196Z,4.97
2022-08-29T09:04:45.145Z,5.43
2022-08-29T09:07:54.802Z,4.93
2022-08-29T09:10:59.187Z,4.77
2022-08-29T09:14:03.442Z,4.97
2022-08-29T09:16:59.770Z,4.30
2022-08-29T09:19:53.841Z,4.03
2022-08-29T09:22:54.288Z,4.40
2022-08-29T09:25:46.451Z,4.03
2022-08-29T09:28:38.761Z,4.50
2022-08-29T09:31:32.770Z,4.00
2022-08-29T09:34:57.389Z,4.07
2022-08-29T09:37:59.556Z,4.10
2022-08-29T09:40:58.465Z,4.57
2022-08-29T09:43:56.337Z,4.07
2022-08-29T09:46:49.013Z,4.53
2022-08-29T09:49:43.378Z,4.60
2022-08-29T09:52:37.124Z,4.40
2022-08-29T09:55:37.507Z,4.07
2022-08-29T09:58:39.900Z,4.20
2022-08-29T10:01:36.682Z,3.87
2022-08-29T10:04:42.274Z,4.30
2022-08-29T10:07:50.628Z,4.60
2022-08-29T10:10:57.512Z,3.77
2022-08-29T10:13:56.362Z,4.33
2022-08-29T10:17:18.398Z,3.87
2022-08-29T10:20:12.517Z,4.50
2022-08-29T10:23:11.304Z,4.63
2022-08-29T10:26:11.288Z,4.53
2022-08-29T10:29:14.382Z,4.10
2022-08-29T10:32:16.244Z,4.43
2022-08-29T10:35:16.472Z,4.67
2022-08-29T10:38:17.714Z,4.35
2022-08-29T10:41:17.736Z,4.50
2022-08-29T10:44:28.397Z,4.37
2022-08-29T10:47:40.717Z,4.20
2022-08-29T10:50:44.474Z,4.37
2022-08-29T10:53:41.634Z,3.43
2022-08-29T10:56:39.520Z,3.90
2022-08-29T10:59:43.103Z,3.87
2022-08-29T11:02:42.871Z,4.03
2022-08-29T11:05:40.737Z,3.60
2022-08-29T11:08:36.985Z,4.30
2022-08-29T11:11:31.394Z,4.10
2022-08-29T11:14:29.634Z,4.57
2022-08-29T11:17:24.266Z,4.07
2022-08-29T11:20:20.622Z,3.73
2022-08-29T11:23:19.650Z,4.00
2022-08-29T11:26:20.285Z,3.90
2022-08-29T11:29:24.858Z,4.15
2022-08-29T11:32:29.338Z,5.03
2022-08-29T11:35:33.249Z,4.33
2022-08-29T11:38:51.667Z,4.93
2022-08-29T11:41:49.103Z,4.53
2022-08-29T11:44:46.441Z,4.03
2022-08-29T11:47:57.902Z,4.30
2022-08-29T11:50:50.808Z,4.00
2022-08-29T11:53:42.900Z,3.93
2022-08-29T11:56:35.638Z,4.30
2022-08-29T12:00:00.331Z,4.23
2022-08-29T12:02:53.269Z,4.77
2022-08-29T12:05:56.381Z,4.40
2022-08-29T12:09:04.521Z,5.03
2022-08-29T12:12:34.921Z,4.37
2022-08-29T12:15:56.693Z,4.40
2022-08-29T12:18:52.341Z,4.30
2022-08-29T12:21:52.151Z,5.60
2022-08-29T12:24:57.158Z,4.30
2022-08-29T12:28:06.247Z,4.37
2022-08-29T12:31:23.236Z,4.00
2022-08-29T12:34:44.078Z,4.67
2022-08-29T12:38:01.290Z,4.20
2022-08-29T12:41:08.065Z,4.73
2022-08-29T12:44:04.238Z,4.07
2022-08-29T12:47:10.567Z,4.57
2022-08-29T12:50:08.339Z,4.37
2022-08-29T12:53:07.044Z,4.23
2022-08-29T12:56:02.832Z,4.40
2022-08-29T12:59:00.837Z,3.93
2022-08-29T13:01:56.412Z,4.27
2022-08-29T13:04:49.298Z,4.50
2022-08-29T13:07:42.131Z,4.27
2022-08-29T13:10:35.304Z,4.00
2022-08-29T13:13:29.085Z,4.53
2022-08-29T13:16:30.253Z,4.20
2022-08-29T13:19:25.660Z,4.50
2022-08-29T13:22:19.595Z,3.83
2022-08-29T13:25:17.383Z,4.07
2022-08-29T13:28:13.945Z,3.97
2022-08-29T13:31:30.179Z,4.23
2022-08-29T13:34:25.099Z,3.70
2022-08-29T13:37:33.025Z,4.27
2022-08-29T13:40:37.825Z,4.57
2022-08-29T13:43:41.561Z,3.67
2022-08-29T13:46:34.274Z,4.43
2022-08-29T13:49:28.808Z,3.73
2022-08-29T13:52:21.164Z,3.70
2022-08-29T13:55:14.821Z,3.97
2022-08-29T13:58:07.089Z,4.25
2022-08-29T14:01:00.411Z,3.60
2022-08-29T14:03:54.361Z,3.90
2022-08-29T14:06:48.914Z,3.83
2022-08-29T14:09:44.585Z,4.37
2022-08-29T14:12:37.079Z,4.03
2022-08-29T14:15:29.329Z,3.90
2022-08-29T14:18:22.464Z,4.00
2022-08-29T14:21:14.677Z,4.77
2022-08-29T14:24:07.998Z,4.17
2022-08-29T14:27:02.441Z,3.73
2022-08-29T14:29:56.511Z,3.83
2022-08-29T14:32:49.357Z,3.90
2022-08-29T14:35:42.426Z,3.50
2022-08-29T14:38:36.317Z,4.23
2022-08-29T14:41:28.441Z,4.60
2022-08-29T14:44:21.493Z,4.20
2022-08-29T14:47:14.141Z,4.00
2022-08-29T14:50:08.757Z,4.43
2022-08-29T14:53:00.841Z,3.80
2022-08-29T14:55:53.712Z,4.33
2022-08-29T14:58:46.383Z,3.80
2022-08-29T15:01:38.947Z,4.20
2022-08-29T15:04:37.439Z,4.00
2022-08-29T15:07:33.337Z,4.00
2022-08-29T15:10:26.720Z,4.17
2022-08-29T15:13:18.517Z,4.47
2022-08-29T15:16:11.405Z,4.27
2022-08-29T15:19:40.626Z,4.80
2022-08-29T15:22:17.428Z,4.20
2022-08-29T15:25:11.628Z,3.70
2022-08-29T15:28:05.811Z,4.53
2022-08-29T15:30:58.870Z,4.10
2022-08-29T15:33:51.697Z,4.17
2022-08-29T15:36:44.050Z,4.30
2022-08-29T15:39:37.107Z,3.73
2022-08-29T15:42:30.705Z,4.33
2022-08-29T15:45:23.553Z,3.70
2022-08-29T15:48:16.708Z,4.03
2022-08-29T15:51:10.354Z,3.90
2022-08-29T15:54:02.181Z,3.90
2022-08-29T15:56:54.717Z,4.10
2022-08-29T16:00:02.323Z,4.10
2022-08-29T16:03:08.739Z,4.63
2022-08-29T16:06:01.189Z,4.03
2022-08-29T16:08:55.452Z,4.20
2022-08-29T16:11:47.956Z,3.90
2022-08-29T16:17:53.611Z,4.40
2022-08-29T16:20:46.680Z,4.40
2022-08-29T16:23:39.166Z,4.03
2022-08-29T16:26:32.443Z,5.10
2022-08-29T16:29:26.363Z,4.30
2022-08-29T16:32:19.165Z,5.20
2022-08-29T16:35:12.974Z,5.57
2022-08-29T16:38:05.237Z,6.33
2022-08-29T16:40:57.780Z,6.03
2022-08-29T16:43:52.311Z,6.50
2022-08-29T16:46:44.623Z,7.43
2022-08-29T16:49:36.658Z,6.33
2022-08-29T16:52:28.601Z,8.40
2022-08-29T16:55:23.778Z,7.97
2022-08-29T16:58:33.330Z,8.00
2022-08-29T17:01:27.269Z,7.90
2022-08-29T17:04:23.336Z,7.30
2022-08-29T17:07:15.360Z,7.37
2022-08-29T17:10:08.421Z,7.50
2022-08-29T17:12:59.629Z,7.53
2022-08-29T17:15:53.287Z,7.10
2022-08-29T17:18:45.946Z,6.03
2022-08-29T17:21:39.825Z,7.03
2022-08-29T17:24:32.469Z,5.67
2022-08-29T17:27:29.388Z,6.40
2022-08-29T17:30:23.013Z,6.50
2022-08-29T17:33:15.536Z,6.80
2022-08-29T17:36:10.259Z,5.93
2022-08-29T17:39:02.511Z,6.30
2022-08-29T17:41:56.754Z,7.37
2022-08-29T17:44:49.806Z,6.70
2022-08-29T17:47:41.834Z,6.40
2022-08-29T17:50:34.756Z,7.07
2022-08-29T17:53:27.126Z,6.87
2022-08-29T17:56:22.084Z,6.70
2022-08-29T17:59:15.624Z,6.10
2022-08-29T18:02:08.725Z,6.80
2022-08-29T18:05:01.195Z,6.47
2022-08-29T18:07:54.168Z,6.43
2022-08-29T18:10:46.422Z,6.07
2022-08-29T18:13:38.442Z,6.10
2022-08-29T18:16:30.492Z,6.40
2022-08-29T18:19:23.517Z,6.20
2022-08-29T18:22:16.156Z,6.43
2022-08-29T18:25:11.583Z,6.47
2022-08-29T18:28:06.935Z,6.67
2022-08-29T18:30:59.496Z,7.27
2022-08-29T18:34:01.049Z,6.83
2022-08-29T18:36:54.517Z,7.50
2022-08-29T18:39:47.478Z,7.63
2022-08-29T18:42:41.465Z,7.07
2022-08-29T18:45:33.858Z,6.17
2022-08-29T18:48:29.484Z,7.00
2022-08-29T18:51:22.181Z,6.13
2022-08-29T18:54:18.785Z,6.83
2022-08-29T18:57:11.929Z,6.23
2022-08-29T19:00:06.133Z,6.80
2022-08-29T19:02:59.282Z,6.60
2022-08-29T19:05:54.214Z,7.23
2022-08-29T19:08:46.668Z,6.90
2022-08-29T19:11:39.453Z,6.87
2022-08-29T19:14:31.956Z,7.57
2022-08-29T19:17:23.788Z,6.80
2022-08-29T19:20:39.163Z,6.77
2022-08-29T19:23:34.207Z,6.60
2022-08-29T19:26:28.940Z,6.93
2022-08-29T19:29:21.331Z,7.60
2022-08-29T19:32:13.262Z,7.00
2022-08-29T19:35:05.920Z,7.40
2022-08-29T19:37:58.321Z,6.80
2022-08-29T19:40:56.485Z,7.30
2022-08-29T19:43:49.609Z,6.73
2022-08-29T19:46:44.960Z,7.50
2022-08-29T19:49:45.238Z,14.53
2022-08-29T19:52:37.803Z,11.93
2022-08-29T19:55:29.973Z,8.80
2022-08-29T19:58:31.223Z,7.80
2022-08-29T20:01:24.328Z,7.63
2022-08-29T20:04:17.586Z,9.23
2022-08-29T20:07:11.755Z,7.40
2022-08-29T20:10:05.857Z,8.10
2022-08-29T20:12:58.989Z,9.07
2022-08-29T20:15:52.487Z,8.60
2022-08-29T20:18:46.669Z,9.30
2022-08-29T20:21:43.745Z,9.60
2022-08-29T20:24:36.396Z,10.63
2022-08-29T20:27:34.295Z,10.70
2022-08-29T20:30:30.619Z,9.87
2022-08-29T20:33:23.664Z,11.40
2022-08-29T20:36:33.308Z,10.40
2022-08-29T20:39:28.724Z,10.83
2022-08-29T20:42:24.172Z,9.80
2022-08-29T20:45:17.296Z,9.63
2022-08-29T20:48:09.872Z,8.80
2022-08-29T20:51:07.165Z,8.20
2022-08-29T20:53:59.877Z,7.87
2022-08-29T20:56:52.483Z,8.40
2022-08-29T20:59:45.232Z,8.53
2022-08-29T21:02:55.183Z,9.33
2022-08-29T21:05:46.874Z,8.80
2022-08-29T21:08:41.179Z,9.37
2022-08-29T21:11:33.218Z,8.03
2022-08-29T21:14:27.502Z,8.23
2022-08-29T21:17:19.998Z,8.43
2022-08-29T21:20:14.628Z,8.23
2022-08-29T21:23:08.545Z,7.43
2022-08-29T21:26:02.227Z,8.17
2022-08-29T21:28:54.287Z,8.30
2022-08-29T21:31:47.468Z,8.43
2022-08-29T21:34:39.416Z,8.33
2022-08-29T21:37:32.065Z,8.73
2022-08-29T21:40:26.355Z,7.80
2022-08-29T21:43:19.474Z,7.57
2022-08-29T21:46:19.665Z,8.63
2022-08-29T21:49:13.552Z,8.03
2022-08-29T21:52:05.804Z,7.97
2022-08-29T21:54:58.863Z,7.63
2022-08-29T21:57:55.970Z,8.10
2022-08-29T22:00:49.757Z,8.03
2022-08-29T22:03:42.881Z,8.47
2022-08-29T22:06:39.819Z,7.80
2022-08-29T22:09:34.025Z,7.77
2022-08-29T22:12:29.112Z,7.90
2022-08-29T22:15:39.527Z,7.80
2022-08-29T22:18:32.272Z,8.40
2022-08-29T22:21:24.847Z,7.53
2022-08-29T22:24:19.365Z,8.30
2022-08-29T22:27:11.758Z,8.60
2022-08-29T22:30:05.577Z,8.13
2022-08-29T22:32:57.701Z,7.90
2022-08-29T22:35:50.459Z,8.10
2022-08-29T22:38:43.219Z,7.60
2022-08-29T22:41:35.682Z,7.50
2022-08-29T22:47:41.731Z,8.67
2022-08-29T22:50:34.928Z,7.63
2022-08-29T22:53:27.353Z,7.57
2022-08-29T22:56:19.444Z,8.20
2022-08-29T22:59:12.847Z,8.00
2022-08-29T23:02:06.909Z,7.73
2022-08-29T23:04:58.932Z,7.73
2022-08-29T23:07:51.275Z,8.57
2022-08-29T23:10:45.430Z,7.63
2022-08-29T23:13:42.547Z,8.17
2022-08-29T23:16:36.239Z,8.00
2022-08-29T23:19:28.421Z,8.03
2022-08-29T23:22:20.764Z,7.93
2022-08-29T23:25:14.880Z,8.97
2022-08-29T23:28:07.261Z,7.60
2022-08-29T23:31:01.783Z,8.67
2022-08-29T23:33:54.823Z,8.00
2022-08-29T23:36:47.280Z,7.87
2022-08-29T23:39:38.822Z,8.00
2022-08-29T23:42:31.355Z,7.95
2022-08-29T23:45:23.537Z,7.87
2022-08-29T23:48:15.617Z,8.20
2022-08-29T23:51:11.309Z,8.00
2022-08-29T23:54:03.659Z,8.13
2022-08-29T23:56:56.019Z,8.70
